Huvudsida
METAR-TAF:

METAR-TAF

Flygplatser :

Militär flygplats

Niederstetten, Tyskland

latitud: 49-24N, longitud: 009-58E, höjd: 468 m

Aktuellt väderrapport

Denna rapport gjordes för 29 minuter sedan, klockan 04:20 UTC
Vind 2 kt från väst/sydväst
Temperatur 14°C
Fuktighet 94%
Tryck 1013 hPa
Sikt 10 km eller mer
Få moln på en höjd av 6000 ft
Mulet på en höjd av 7000 ft
lätt regn

METAR: ETHN 150420Z 25002KT 9999 -RA FEW060 OVC070 14/13 Q1013 BLU BLU TEMPO WHT

Tid: 06:49 (04:49 UTC)

Väderprognos

Denna rapport gjordes för 49 minuter sedan, klockan 04:00 UTC
Prognos gäller från 15 kl. 05 UTC till 15 kl. 14 UTC
Vind 7 kt från väst
Sikt 10 km eller mer
Spridda moln på en höjd av 2000 ft
Mulet på en höjd av 7000 ft
lätt regn
Temporärt
från 15 kl. 05 UTC till 15 kl. 10 UTC
Vind 10 kt från väst
Sikt: 5000 m
Mulet på en höjd av 2000 ft
regn

TAF: ETHN 150400Z 1505/1514 27007KT 9999 -RA SCT020 OVC070 TEMPO 1505/1510 27010KT 5000 RA OVC020

Aktuella väderrapporter och prognoser från 4000 flygplatser (METAR- och TAF-rapporter).

De tillgängliga stationerna syns som gula och röda prickar på kartan.

För musen över prickarna för att se namnen på stationerna.

Klicka sedan för att få väderrapporter och prognoser.

För att ändra kartan: Klicka på de gröna knapparna med ett svart kors på för att zooma in; den gröna knappen med ett streck på för att zooma ut; eller på de gröna pilarna för angränsande kartor.


METAR-TAF: